Terminal Aerodrome Forecast
Issued by NWS

Home | Current Version | Previous Version | Text Only | Print | Product List | Glossary On
Versions: 1 2 3 4 5 6 7 8 9 10 11 12 13 14 15 16 17 18 19 20 21 22 23 24 25 26
000
FTUS42 TJSJ 110541
TAFKPK
TAF
TKPK 110541Z 1106/1206 07015KT P6SM VCSH SCT018
     FM111800 06018KT P6SM SCT025
      AMD NOT SKED TIL 111100=

USA.gov is the U.S. government's official web portal to all federal, state and local government web resources and services.